Time;durP1;ratioP1;P1;durP2;ratioP2;P2;SDS_P1;SDS_P2;PMS_P1;PMS_P2;Temp;Humidity;BMP_temperature;BMP_pressure;BME280_temperature;BME280_humidity;BME280_pressure;Samples;Min_cycle;Max_cycle;Signal;HPM_P1;HPM_P2
2021/01/27 00:02:16;;;;;;;2.90;1.83;;;;;;;;;;4877729;29;20056;-71
2021/01/27 00:04:43;;;;;;;3.67;1.75;;;;;;;;;;4877164;29;20057;-71
2021/01/27 00:07:10;;;;;;;3.22;1.88;;;;;;;;;;4867889;29;20527;-71
2021/01/27 00:09:38;;;;;;;2.85;1.85;;;;;;;;;;4863699;29;20519;-72
2021/01/27 00:12:16;;;;;;;4.35;2.38;;;;;;;;;;4873810;29;20414;-72
2021/01/27 00:14:44;;;;;;;2.05;1.50;;;;;;;;;;4875650;29;20053;-71
2021/01/27 00:17:10;;;;;;;2.83;1.55;;;;;;;;;;4860361;29;20415;-71
2021/01/27 00:19:37;;;;;;;2.83;1.90;;;;;;;;;;4869594;29;20512;-72
2021/01/27 00:22:05;;;;;;;2.38;1.55;;;;;;;;;;4871321;29;20045;-72
2021/01/27 00:24:35;;;;;;;2.38;1.40;;;;;;;;;;4872044;29;20517;-71
2021/01/27 00:27:01;;;;;;;2.83;1.67;;;;;;;;;;4875223;29;20049;-72
2021/01/27 00:29:28;;;;;;;2.70;1.70;;;;;;;;;;4871323;29;20061;-73
2021/01/27 00:31:54;;;;;;;2.63;1.73;;;;;;;;;;4866855;29;20510;-72
2021/01/27 00:34:21;;;;;;;3.72;1.80;;;;;;;;;;4865666;29;20125;-72
2021/01/27 00:36:48;;;;;;;2.50;1.50;;;;;;;;;;4876799;29;20041;-72
2021/01/27 00:39:15;;;;;;;3.13;1.40;;;;;;;;;;4871971;29;20051;-72
2021/01/27 00:41:41;;;;;;;2.70;1.60;;;;;;;;;;4877474;29;20059;-72
2021/01/27 00:44:07;;;;;;;1.92;1.40;;;;;;;;;;4866251;29;20058;-71
2021/01/27 00:46:34;;;;;;;2.45;1.65;;;;;;;;;;4871434;29;20124;-72
2021/01/27 00:49:01;;;;;;;2.83;1.40;;;;;;;;;;4868675;29;20060;-72
2021/01/27 00:51:27;;;;;;;2.78;1.50;;;;;;;;;;4873815;29;20106;-72
2021/01/27 00:53:54;;;;;;;2.40;1.70;;;;;;;;;;4867919;29;20046;-71
2021/01/27 00:56:26;;;;;;;2.10;1.50;;;;;;;;;;4873239;29;20104;-72
2021/01/27 00:58:52;;;;;;;2.35;1.77;;;;;;;;;;4873149;29;20045;-72
2021/01/27 01:01:18;;;;;;;1.77;1.27;;;;;;;;;;4874050;29;20503;-71
2021/01/27 01:03:44;;;;;;;3.03;1.60;;;;;;;;;;4879474;29;20056;-71
2021/01/27 01:06:10;;;;;;;2.25;1.50;;;;;;;;;;4868875;29;20053;-71
2021/01/27 01:08:36;;;;;;;2.42;1.52;;;;;;;;;;4877797;29;20053;-71
2021/01/27 01:11:05;;;;;;;2.08;1.38;;;;;;;;;;4873380;29;20159;-71
2021/01/27 01:13:31;;;;;;;2.13;1.30;;;;;;;;;;4876117;29;20051;-70
2021/01/27 01:16:00;;;;;;;2.15;1.25;;;;;;;;;;4867078;29;20539;-70
2021/01/27 01:18:27;;;;;;;3.78;1.50;;;;;;;;;;4873793;29;20129;-71
2021/01/27 01:20:55;;;;;;;3.83;1.13;;;;;;;;;;4878417;29;20063;-71
2021/01/27 01:23:22;;;;;;;2.13;1.40;;;;;;;;;;4872471;29;20053;-71
2021/01/27 01:25:49;;;;;;;3.55;1.38;;;;;;;;;;4862913;29;20057;-72
2021/01/27 01:28:17;;;;;;;1.70;1.20;;;;;;;;;;4879639;29;20462;-70
2021/01/27 01:30:44;;;;;;;2.60;1.50;;;;;;;;;;4872405;29;20084;-70
2021/01/27 01:33:15;;;;;;;2.25;1.40;;;;;;;;;;4874585;29;20049;-71
2021/01/27 01:35:42;;;;;;;1.75;1.30;;;;;;;;;;4875762;29;20090;-71
2021/01/27 01:38:08;;;;;;;2.08;1.20;;;;;;;;;;4869932;29;20509;-71
2021/01/27 01:40:39;;;;;;;1.88;1.00;;;;;;;;;;4870434;29;20408;-71
2021/01/27 01:43:16;;;;;;;2.75;1.42;;;;;;;;;;4865973;29;20053;-71
2021/01/27 01:45:46;;;;;;;2.63;1.20;;;;;;;;;;4871787;29;20053;-71
2021/01/27 01:48:18;;;;;;;3.05;1.40;;;;;;;;;;4873615;29;20053;-71
2021/01/27 01:50:48;;;;;;;1.35;1.00;;;;;;;;;;4853622;29;20049;-71
2021/01/27 01:53:14;;;;;;;1.60;1.15;;;;;;;;;;4865007;29;20505;-71
2021/01/27 01:55:41;;;;;;;2.42;1.33;;;;;;;;;;4863500;29;20459;-70
2021/01/27 01:58:09;;;;;;;2.38;1.63;;;;;;;;;;4866972;29;20121;-71
2021/01/27 02:00:38;;;;;;;2.72;1.40;;;;;;;;;;4868804;29;20152;-70
2021/01/27 02:03:08;;;;;;;1.80;1.23;;;;;;;;;;4870460;29;20056;-70
2021/01/27 02:05:35;;;;;;;1.65;1.38;;;;;;;;;;4871944;29;20048;-70
2021/01/27 02:08:01;;;;;;;1.58;1.10;;;;;;;;;;4872699;29;20055;-70
2021/01/27 02:10:27;;;;;;;2.45;1.17;;;;;;;;;;4874228;29;20046;-70
2021/01/27 02:13:11;;;;;;;1.92;1.10;;;;;;;;;;4862923;29;20424;-70
2021/01/27 02:32:28;;;;;;;1.98;1.10;;;;;;;;;;4859449;29;20423;-70
2021/01/27 02:35:05;;;;;;;1.58;0.98;;;;;;;;;;4850745;29;20057;-72
2021/01/27 02:37:37;;;;;;;1.38;1.00;;;;;;;;;;4848969;29;20046;-73
2021/01/27 02:40:13;;;;;;;1.40;0.90;;;;;;;;;;4846715;29;20140;-71
2021/01/27 02:42:57;;;;;;;0.93;0.80;;;;;;;;;;4849676;29;20041;-72
2021/01/27 02:45:35;;;;;;;1.77;1.00;;;;;;;;;;4855199;29;20148;-71
2021/01/27 02:48:01;;;;;;;2.60;1.05;;;;;;;;;;4858381;29;20055;-71
2021/01/27 02:50:36;;;;;;;1.38;0.95;;;;;;;;;;4848880;29;20067;-71
2021/01/27 02:53:06;;;;;;;1.42;1.00;;;;;;;;;;4845856;29;20054;-71
2021/01/27 02:55:40;;;;;;;1.30;0.95;;;;;;;;;;4854367;29;20072;-71
2021/01/27 02:58:10;;;;;;;0.93;0.73;;;;;;;;;;4848184;29;20072;-71
2021/01/27 03:00:37;;;;;;;1.38;1.00;;;;;;;;;;4854881;29;20064;-71
2021/01/27 03:03:13;;;;;;;1.40;0.90;;;;;;;;;;4847013;29;20045;-71
2021/01/27 03:05:41;;;;;;;2.05;1.10;;;;;;;;;;4848143;29;20053;-71
2021/01/27 03:08:11;;;;;;;1.33;0.90;;;;;;;;;;4851640;29;20056;-70
2021/01/27 03:10:43;;;;;;;1.58;1.13;;;;;;;;;;4849537;29;20054;-71
2021/01/27 03:13:10;;;;;;;1.67;0.90;;;;;;;;;;4848872;29;20423;-71
2021/01/27 03:15:39;;;;;;;1.10;0.90;;;;;;;;;;4845828;29;20114;-71
2021/01/27 03:18:09;;;;;;;1.30;0.93;;;;;;;;;;4849871;29;20049;-70
2021/01/27 03:20:37;;;;;;;1.40;1.00;;;;;;;;;;4842586;29;20050;-71
2021/01/27 03:23:22;;;;;;;1.92;1.20;;;;;;;;;;4852756;29;20052;-70
2021/01/27 03:25:56;;;;;;;1.38;0.98;;;;;;;;;;4844793;29;20574;-72
2021/01/27 03:28:31;;;;;;;1.98;1.05;;;;;;;;;;4855222;29;20046;-70
2021/01/27 03:30:57;;;;;;;1.08;0.88;;;;;;;;;;4863019;29;20401;-70
2021/01/27 03:33:24;;;;;;;1.27;0.85;;;;;;;;;;4875306;29;20041;-71
2021/01/27 03:35:52;;;;;;;1.55;1.00;;;;;;;;;;4867736;29;20057;-70
2021/01/27 03:38:30;;;;;;;1.20;0.80;;;;;;;;;;4867123;29;20049;-71
2021/01/27 03:41:01;;;;;;;1.70;1.10;;;;;;;;;;4872763;29;20053;-72
2021/01/27 03:44:03;;;;;;;3.90;1.33;;;;;;;;;;4872945;29;20446;-71
2021/01/27 03:46:38;;;;;;;1.20;1.02;;;;;;;;;;4798516;29;20141;-70
2021/01/27 03:49:08;;;;;;;2.15;0.80;;;;;;;;;;4868229;29;20109;-71
2021/01/27 03:51:37;;;;;;;1.60;1.10;;;;;;;;;;4870508;29;20056;-71
2021/01/27 03:54:06;;;;;;;0.98;0.80;;;;;;;;;;4867008;29;20845;-70
2021/01/27 03:56:32;;;;;;;1.45;0.95;;;;;;;;;;4867768;29;20052;-71
2021/01/27 03:58:58;;;;;;;1.55;1.00;;;;;;;;;;4859713;29;20419;-71
2021/01/27 04:01:24;;;;;;;1.95;1.35;;;;;;;;;;4873776;29;20049;-71
2021/01/27 04:03:52;;;;;;;2.33;1.10;;;;;;;;;;4872212;29;20060;-70
2021/01/27 04:06:18;;;;;;;1.27;0.82;;;;;;;;;;4866449;29;20045;-70
2021/01/27 04:08:44;;;;;;;1.00;0.77;;;;;;;;;;4871005;29;20510;-71
2021/01/27 04:11:10;;;;;;;0.60;0.60;;;;;;;;;;4876357;29;20703;-70
2021/01/27 04:13:36;;;;;;;2.78;0.90;;;;;;;;;;4867388;29;20209;-71
2021/01/27 04:16:03;;;;;;;1.15;0.88;;;;;;;;;;4876395;29;20046;-71
2021/01/27 04:18:29;;;;;;;1.77;1.10;;;;;;;;;;4870622;29;20053;-70
2021/01/27 04:20:56;;;;;;;1.60;0.95;;;;;;;;;;4870988;29;20056;-71
2021/01/27 04:23:22;;;;;;;3.50;0.88;;;;;;;;;;4876275;29;20068;-71
2021/01/27 04:25:49;;;;;;;1.38;1.00;;;;;;;;;;4865385;29;20104;-72
2021/01/27 04:28:15;;;;;;;2.53;0.90;;;;;;;;;;4869482;29;20062;-71
2021/01/27 04:30:42;;;;;;;1.55;1.00;;;;;;;;;;4871784;29;20057;-69
2021/01/27 04:33:09;;;;;;;2.22;1.25;;;;;;;;;;4875470;29;20403;-69
2021/01/27 04:35:36;;;;;;;1.88;1.30;;;;;;;;;;4868901;29;20052;-71
2021/01/27 04:38:03;;;;;;;4.03;1.10;;;;;;;;;;4869756;29;20456;-71
2021/01/27 04:40:32;;;;;;;1.38;0.93;;;;;;;;;;4872988;29;20049;-71
2021/01/27 04:43:01;;;;;;;3.13;1.40;;;;;;;;;;4869298;29;20055;-72
2021/01/27 04:45:28;;;;;;;2.42;1.33;;;;;;;;;;4873378;29;20063;-72
2021/01/27 04:47:54;;;;;;;2.45;1.02;;;;;;;;;;4872589;29;20150;-72
2021/01/27 04:50:27;;;;;;;1.60;1.20;;;;;;;;;;4870027;29;20048;-73
2021/01/27 04:52:59;;;;;;;3.92;1.00;;;;;;;;;;4876755;29;20135;-71
2021/01/27 04:55:39;;;;;;;1.83;1.00;;;;;;;;;;4870172;29;20053;-72
2021/01/27 04:58:19;;;;;;;1.90;1.10;;;;;;;;;;4864750;29;20045;-71
2021/01/27 05:00:48;;;;;;;1.83;1.10;;;;;;;;;;4871282;29;20083;-71
2021/01/27 05:03:33;;;;;;;1.70;0.95;;;;;;;;;;4870695;29;20068;-71
2021/01/27 05:06:02;;;;;;;1.80;1.27;;;;;;;;;;4870774;29;20137;-71
2021/01/27 05:08:28;;;;;;;1.35;0.80;;;;;;;;;;4874028;29;20044;-70
2021/01/27 05:10:55;;;;;;;2.17;1.45;;;;;;;;;;4876904;29;20067;-72
2021/01/27 05:13:24;;;;;;;1.55;1.10;;;;;;;;;;4870543;29;20420;-71
2021/01/27 05:15:50;;;;;;;2.15;1.20;;;;;;;;;;4870552;29;20060;-72
2021/01/27 05:18:19;;;;;;;1.42;1.08;;;;;;;;;;4868919;29;20081;-71
2021/01/27 05:20:48;;;;;;;1.13;0.90;;;;;;;;;;4866518;29;20137;-71
2021/01/27 05:23:19;;;;;;;1.95;1.38;;;;;;;;;;4866972;29;20049;-71
2021/01/27 05:26:06;;;;;;;1.63;1.15;;;;;;;;;;4867199;29;20124;-71
2021/01/27 05:28:34;;;;;;;1.50;1.27;;;;;;;;;;4873965;29;20055;-71
2021/01/27 05:31:01;;;;;;;2.92;1.05;;;;;;;;;;4870795;29;20053;-71
2021/01/27 05:33:41;;;;;;;1.88;1.15;;;;;;;;;;4873454;29;20077;-71
2021/01/27 05:36:12;;;;;;;1.25;0.93;;;;;;;;;;4864674;29;20071;-71
2021/01/27 05:38:38;;;;;;;1.85;1.20;;;;;;;;;;4866907;29;20053;-71
2021/01/27 05:41:25;;;;;;;1.63;1.00;;;;;;;;;;4875964;29;20104;-72
2021/01/27 05:44:05;;;;;;;1.38;0.90;;;;;;;;;;4863510;29;20072;-72
2021/01/27 05:46:37;;;;;;;1.17;1.00;;;;;;;;;;4875869;29;20411;-72
2021/01/27 05:49:10;;;;;;;2.10;1.20;;;;;;;;;;4867233;29;20101;-71
2021/01/27 05:51:38;;;;;;;1.25;0.80;;;;;;;;;;4867304;29;20061;-72
2021/01/27 05:54:06;;;;;;;;;;;;;;;;;;4866130;29;20054;-71
2021/01/27 05:56:34;;;;;;;2.08;1.20;;;;;;;;;;4865307;29;19931;-70
2021/01/27 05:59:06;;;;;;;1.08;0.70;;;;;;;;;;4878675;29;20566;-71
2021/01/27 06:01:36;;;;;;;1.40;0.80;;;;;;;;;;4873582;29;20083;-71
2021/01/27 06:04:10;;;;;;;2.42;1.15;;;;;;;;;;4866201;29;20064;-72
2021/01/27 06:06:49;;;;;;;2.25;0.95;;;;;;;;;;4871845;29;20042;-72
2021/01/27 06:09:48;;;;;;;1.23;1.00;;;;;;;;;;4874975;29;20083;-71
2021/01/27 06:12:20;;;;;;;1.77;0.93;;;;;;;;;;4834208;29;20502;-72
2021/01/27 06:15:09;;;;;;;1.05;0.65;;;;;;;;;;4857858;29;20068;-73
2021/01/27 06:17:43;;;;;;;1.27;0.90;;;;;;;;;;4873884;29;20051;-70
2021/01/27 06:20:10;;;;;;;1.45;1.00;;;;;;;;;;4871646;29;20076;-71
2021/01/27 06:22:42;;;;;;;1.63;0.93;;;;;;;;;;4866971;29;20049;-71
2021/01/27 06:25:22;;;;;;;1.38;0.90;;;;;;;;;;4863772;29;20055;-71
2021/01/27 06:28:01;;;;;;;1.92;1.15;;;;;;;;;;4871582;29;20477;-73
2021/01/27 06:30:40;;;;;;;2.53;0.93;;;;;;;;;;4871994;29;20060;-71
2021/01/27 06:33:13;;;;;;;3.28;1.02;;;;;;;;;;4873079;29;20060;-70
2021/01/27 06:35:46;;;;;;;2.05;1.00;;;;;;;;;;4870427;29;20057;-71
2021/01/27 06:38:31;;;;;;;2.33;1.10;;;;;;;;;;4869182;29;20045;-72
2021/01/27 06:41:00;;;;;;;0.98;0.70;;;;;;;;;;4874065;29;20502;-72
2021/01/27 06:43:26;;;;;;;1.40;1.00;;;;;;;;;;4872443;29;20555;-72
2021/01/27 06:46:11;;;;;;;1.58;0.90;;;;;;;;;;4855340;29;20041;-72
2021/01/27 06:48:58;;;;;;;1.52;1.02;;;;;;;;;;4868627;29;20061;-72
2021/01/27 06:51:43;;;;;;;1.98;1.23;;;;;;;;;;4851804;29;20049;-71
2021/01/27 06:54:10;;;;;;;1.42;0.85;;;;;;;;;;4871087;29;20052;-71
2021/01/27 06:56:42;;;;;;;1.67;0.80;;;;;;;;;;4855122;29;20049;-71
2021/01/27 06:59:08;;;;;;;2.17;1.08;;;;;;;;;;4869776;29;20563;-70
2021/01/27 07:01:38;;;;;;;1.67;0.90;;;;;;;;;;4868058;29;20848;-70
2021/01/27 07:04:23;;;;;;;0.65;0.60;;;;;;;;;;4866713;29;20053;-70
2021/01/27 07:06:50;;;;;;;0.85;0.68;;;;;;;;;;4870270;29;20045;-71
2021/01/27 07:09:16;;;;;;;1.52;1.00;;;;;;;;;;4869117;29;20065;-70
2021/01/27 07:12:01;;;;;;;11.40;1.88;;;;;;;;;;4874238;29;20571;-70
2021/01/27 07:14:42;;;;;;;3.53;1.38;;;;;;;;;;4873695;29;21411;-71
2021/01/27 07:17:15;;;;;;;3.65;2.05;;;;;;;;;;4871860;29;20053;-71
2021/01/27 07:19:48;;;;;;;4.75;2.28;;;;;;;;;;4869022;29;20128;-73
2021/01/27 07:22:24;;;;;;;2.22;1.10;;;;;;;;;;4871637;29;20567;-72
2021/01/27 07:25:09;;;;;;;3.13;1.48;;;;;;;;;;4867049;29;20045;-71
2021/01/27 07:27:42;;;;;;;3.47;1.60;;;;;;;;;;4869116;29;20060;-70
2021/01/27 07:30:16;;;;;;;4.93;1.77;;;;;;;;;;4875129;29;20071;-71
2021/01/27 07:32:47;;;;;;;6.40;1.90;;;;;;;;;;4868871;29;20057;-70
2021/01/27 07:35:16;;;;;;;5.00;2.00;;;;;;;;;;4868469;29;20049;-71
2021/01/27 07:37:50;;;;;;;2.97;1.50;;;;;;;;;;4870113;29;20169;-70
2021/01/27 07:40:26;;;;;;;2.53;1.52;;;;;;;;;;4871176;29;20438;-71
2021/01/27 07:43:04;;;;;;;4.70;1.48;;;;;;;;;;4867752;29;20144;-73
2021/01/27 07:45:32;;;;;;;4.38;2.00;;;;;;;;;;4867708;29;20424;-71
2021/01/27 07:48:10;;;;;;;2.17;1.50;;;;;;;;;;4865039;29;20049;-72
2021/01/27 07:50:38;;;;;;;3.88;1.50;;;;;;;;;;4867543;29;20065;-71
2021/01/27 07:53:07;;;;;;;2.63;1.83;;;;;;;;;;4867148;29;20059;-72
2021/01/27 07:55:47;;;;;;;6.40;2.40;;;;;;;;;;4864244;29;20423;-71
2021/01/27 07:58:18;;;;;;;7.65;2.60;;;;;;;;;;4866263;29;20507;-72
2021/01/27 08:00:55;;;;;;;6.72;3.20;;;;;;;;;;4870419;29;20284;-71
2021/01/27 08:03:25;;;;;;;4.90;2.63;;;;;;;;;;4865300;29;20109;-71
2021/01/27 08:05:51;;;;;;;;;;;;;;;;;;4867801;29;20071;-71
2021/01/27 08:08:22;;;;;;;4.22;2.85;;;;;;;;;;4865362;29;20298;-71
2021/01/27 08:10:50;;;;;;;6.88;3.60;;;;;;;;;;4865924;29;20057;-73
2021/01/27 08:13:16;;;;;;;8.88;4.00;;;;;;;;;;4860490;29;20044;-71
2021/01/27 08:15:44;;;;;;;6.55;3.25;;;;;;;;;;4864375;29;20053;-72
2021/01/27 08:18:15;;;;;;;9.60;3.80;;;;;;;;;;4866835;29;20059;-71
2021/01/27 08:21:08;;;;;;;7.78;4.10;;;;;;;;;;4869934;29;20064;-72
2021/01/27 08:23:34;;;;;;;6.82;3.95;;;;;;;;;;4874173;29;20052;-72
2021/01/27 08:26:07;;;;;;;6.93;4.20;;;;;;;;;;4870135;29;20101;-72
2021/01/27 08:28:37;;;;;;;8.73;4.28;;;;;;;;;;4872430;29;20053;-71
2021/01/27 08:31:24;;;;;;;6.93;4.43;;;;;;;;;;4869820;29;20054;-72
2021/01/27 08:33:57;;;;;;;9.32;4.63;;;;;;;;;;4866520;29;20128;-71
2021/01/27 08:36:29;;;;;;;7.55;4.63;;;;;;;;;;4869003;29;20491;-72
2021/01/27 08:38:56;;;;;;;8.15;4.78;;;;;;;;;;4867843;29;20056;-72
2021/01/27 08:41:41;;;;;;;10.32;5.78;;;;;;;;;;4859146;29;20052;-72
2021/01/27 08:44:27;;;;;;;7.60;4.38;;;;;;;;;;4856213;29;20152;-71
2021/01/27 08:47:12;;;;;;;9.90;4.38;;;;;;;;;;4856411;29;20148;-72
2021/01/27 08:49:50;;;;;;;10.00;4.88;;;;;;;;;;4857246;29;20072;-73
2021/01/27 08:52:16;;;;;;;11.32;5.18;;;;;;;;;;4872637;29;20049;-71
2021/01/27 08:54:45;;;;;;;8.65;4.70;;;;;;;;;;4873718;29;20128;-72
2021/01/27 08:57:24;;;;;;;10.35;4.57;;;;;;;;;;4856061;29;20076;-71
2021/01/27 09:00:01;;;;;;;11.48;5.50;;;;;;;;;;4871449;29;20056;-74
2021/01/27 09:02:43;;;;;;;9.27;5.07;;;;;;;;;;4873026;29;20055;-73
2021/01/27 09:05:22;;;;;;;8.43;4.57;;;;;;;;;;4870371;29;20049;-73
2021/01/27 09:07:52;;;;;;;10.40;4.65;;;;;;;;;;4870920;29;20053;-74
2021/01/27 09:10:24;;;;;;;8.32;4.70;;;;;;;;;;4872765;29;20505;-73
2021/01/27 09:12:50;;;;;;;8.30;4.88;;;;;;;;;;4867571;29;20132;-73
2021/01/27 09:15:29;;;;;;;13.73;4.88;;;;;;;;;;4873526;29;20053;-75
2021/01/27 09:18:05;;;;;;;7.20;3.83;;;;;;;;;;4858762;29;20113;-69
2021/01/27 09:20:32;;;;;;;9.93;4.20;;;;;;;;;;4864035;29;20045;-69
2021/01/27 09:23:00;;;;;;;10.57;3.78;;;;;;;;;;4871721;29;20052;-69
2021/01/27 09:25:26;;;;;;;6.00;3.70;;;;;;;;;;4873115;29;20053;-69
2021/01/27 09:27:59;;;;;;;7.25;4.00;;;;;;;;;;4867951;29;20049;-70
2021/01/27 09:30:26;;;;;;;6.97;3.60;;;;;;;;;;4868800;29;20057;-70
2021/01/27 09:33:06;;;;;;;7.38;3.58;;;;;;;;;;4877774;29;20084;-70
2021/01/27 09:35:32;;;;;;;5.20;3.33;;;;;;;;;;4876348;29;20455;-70
2021/01/27 09:38:00;;;;;;;6.88;3.28;;;;;;;;;;4866251;29;20052;-69
2021/01/27 09:40:33;;;;;;;9.80;3.67;;;;;;;;;;4866717;29;20048;-69
2021/01/27 09:43:05;;;;;;;5.65;2.20;;;;;;;;;;4867396;29;20084;-69
2021/01/27 09:45:32;;;;;;;8.73;3.63;;;;;;;;;;4867795;29;20049;-69
2021/01/27 09:47:58;;;;;;;5.05;3.00;;;;;;;;;;4867714;29;20452;-72
2021/01/27 09:50:28;;;;;;;4.32;2.38;;;;;;;;;;4876327;29;20069;-73
2021/01/27 09:52:56;;;;;;;7.75;2.97;;;;;;;;;;4869188;29;20128;-70
2021/01/27 09:55:25;;;;;;;5.28;2.83;;;;;;;;;;4870567;29;20204;-71
2021/01/27 09:57:52;;;;;;;5.60;3.20;;;;;;;;;;4866739;29;20045;-72
2021/01/27 10:00:37;;;;;;;5.25;2.45;;;;;;;;;;4869842;29;20045;-71
2021/01/27 10:03:30;;;;;;;13.13;3.55;;;;;;;;;;4865454;29;20402;-70
2021/01/27 10:06:00;;;;;;;10.60;3.00;;;;;;;;;;4862967;29;20136;-71
2021/01/27 10:08:26;;;;;;;8.70;3.38;;;;;;;;;;4867365;29;20067;-71
2021/01/27 10:11:33;;;;;;;9.77;3.38;;;;;;;;;;4870154;29;20057;-72
2021/01/27 10:14:12;;;;;;;11.60;3.03;;;;;;;;;;4863646;29;20059;-70
2021/01/27 10:16:51;;;;;;;12.13;3.13;;;;;;;;;;4868718;29;20063;-71
2021/01/27 10:19:40;;;;;;;6.43;2.65;;;;;;;;;;4871330;29;20053;-80
2021/01/27 10:22:10;;;;;;;6.38;2.42;;;;;;;;;;4862131;29;20049;-73
2021/01/27 10:24:53;;;;;;;2.53;1.55;;;;;;;;;;4867720;29;20053;-73
2021/01/27 10:27:19;;;;;;;5.15;1.95;;;;;;;;;;4872214;29;20053;-73
2021/01/27 10:29:49;;;;;;;4.97;1.83;;;;;;;;;;4862531;29;20099;-72
2021/01/27 10:32:21;;;;;;;4.70;1.45;;;;;;;;;;4868665;29;20311;-71
2021/01/27 10:34:49;;;;;;;3.10;1.40;;;;;;;;;;4861216;29;20049;-71
2021/01/27 10:37:32;;;;;;;7.03;1.75;;;;;;;;;;4863986;29;20068;-71
2021/01/27 10:40:12;;;;;;;3.55;2.17;;;;;;;;;;4865474;29;20041;-71
2021/01/27 10:42:40;;;;;;;3.63;1.33;;;;;;;;;;4863205;29;20149;-70
2021/01/27 10:45:25;;;;;;;4.05;1.40;;;;;;;;;;4870266;29;20056;-71
2021/01/27 10:47:57;;;;;;;2.92;1.50;;;;;;;;;;4862716;29;20525;-72
2021/01/27 10:50:24;;;;;;;3.95;1.60;;;;;;;;;;4868852;29;20048;-71
2021/01/27 10:53:02;;;;;;;6.97;1.88;;;;;;;;;;4863094;29;20068;-71
2021/01/27 10:55:30;;;;;;;7.90;1.92;;;;;;;;;;4863030;29;20060;-70
2021/01/27 10:58:03;;;;;;;4.65;1.60;;;;;;;;;;4866626;29;20465;-70
2021/01/27 11:00:29;;;;;;;2.50;1.50;;;;;;;;;;4861814;29;20152;-71
2021/01/27 11:02:56;;;;;;;2.72;1.05;;;;;;;;;;4862480;29;20760;-71
2021/01/27 11:05:22;;;;;;;2.78;1.27;;;;;;;;;;4866354;29;20056;-74
2021/01/27 11:07:48;;;;;;;1.20;0.90;;;;;;;;;;4866915;29;20053;-75
2021/01/27 11:10:17;;;;;;;2.50;1.23;;;;;;;;;;4868956;29;20060;-72
2021/01/27 11:12:43;;;;;;;2.15;1.20;;;;;;;;;;4869575;29;20372;-74
2021/01/27 11:15:14;;;;;;;2.65;1.30;;;;;;;;;;4869055;29;20510;-73
2021/01/27 11:17:40;;;;;;;1.80;1.20;;;;;;;;;;4866961;29;20063;-74
2021/01/27 11:22:57;;;;;;;2.63;1.55;;;;;;;;;;4853964;29;20056;-74
2021/01/27 11:25:26;;;;;;;3.72;1.42;;;;;;;;;;4870900;29;20049;-73
2021/01/27 11:27:55;;;;;;;2.30;1.35;;;;;;;;;;4866516;29;20045;-73
2021/01/27 11:30:28;;;;;;;3.40;2.10;;;;;;;;;;4864018;29;20050;-74
2021/01/27 11:32:55;;;;;;;2.72;1.50;;;;;;;;;;4866907;29;20061;-74
2021/01/27 11:35:23;;;;;;;4.05;1.48;;;;;;;;;;4861671;29;20054;-75
2021/01/27 11:37:49;;;;;;;3.25;2.10;;;;;;;;;;4875591;29;20057;-74
2021/01/27 11:40:17;;;;;;;2.85;1.75;;;;;;;;;;4869335;29;20059;-74
2021/01/27 11:42:44;;;;;;;3.60;1.38;;;;;;;;;;4872400;29;20052;-74
2021/01/27 11:45:13;;;;;;;6.90;2.37;;;;;;;;;;4864755;29;20049;-73
2021/01/27 11:47:42;;;;;;;6.38;2.90;;;;;;;;;;4869579;29;20671;-74
2021/01/27 11:50:10;;;;;;;5.60;3.65;;;;;;;;;;4866274;29;20129;-75
2021/01/27 11:52:36;;;;;;;7.93;4.82;;;;;;;;;;4872049;29;20085;-74
2021/01/27 11:55:05;;;;;;;8.77;5.60;;;;;;;;;;4870204;29;20049;-74
2021/01/27 11:57:31;;;;;;;11.52;6.40;;;;;;;;;;4871767;29;20045;-73
2021/01/27 12:00:00;;;;;;;10.20;6.28;;;;;;;;;;4871608;29;20144;-74
2021/01/27 12:02:28;;;;;;;9.75;5.95;;;;;;;;;;4871407;29;20058;-74
2021/01/27 12:04:55;;;;;;;8.98;5.88;;;;;;;;;;4869957;29;20435;-75
2021/01/27 12:07:22;;;;;;;11.18;6.40;;;;;;;;;;4858536;29;20179;-75
2021/01/27 12:09:51;;;;;;;8.98;4.57;;;;;;;;;;4873490;29;20052;-75
2021/01/27 12:12:18;;;;;;;7.72;4.28;;;;;;;;;;4871516;29;20049;-75
2021/01/27 12:14:44;;;;;;;6.15;3.78;;;;;;;;;;4873187;29;20056;-75
2021/01/27 12:17:10;;;;;;;9.57;4.78;;;;;;;;;;4872640;29;20057;-75
2021/01/27 12:19:37;;;;;;;6.90;3.50;;;;;;;;;;4872149;29;20064;-74
2021/01/27 12:22:04;;;;;;;7.50;4.05;;;;;;;;;;4872090;29;20055;-74
2021/01/27 12:24:30;;;;;;;5.20;3.45;;;;;;;;;;4867117;29;20056;-74
2021/01/27 12:26:56;;;;;;;6.78;3.08;;;;;;;;;;4870103;29;20049;-75
2021/01/27 12:29:24;;;;;;;7.43;2.72;;;;;;;;;;4868652;29;20053;-74
2021/01/27 12:31:57;;;;;;;7.35;3.78;;;;;;;;;;4868220;29;20056;-75
2021/01/27 12:34:26;;;;;;;8.60;2.80;;;;;;;;;;4871399;29;20492;-76
2021/01/27 12:36:52;;;;;;;6.38;2.90;;;;;;;;;;4873166;29;20055;-72
2021/01/27 12:39:21;;;;;;;5.20;2.45;;;;;;;;;;4873183;29;20145;-72
2021/01/27 12:41:50;;;;;;;5.88;3.17;;;;;;;;;;4874356;29;20109;-74
2021/01/27 12:44:38;;;;;;;4.80;2.30;;;;;;;;;;4869465;29;20061;-74
2021/01/27 12:47:05;;;;;;;5.32;1.90;;;;;;;;;;4877581;29;20149;-73
2021/01/27 12:49:33;;;;;;;2.47;1.77;;;;;;;;;;4874732;29;20487;-72
2021/01/27 12:51:59;;;;;;;9.40;2.47;;;;;;;;;;4873324;29;20072;-72
2021/01/27 12:54:34;;;;;;;6.25;2.45;;;;;;;;;;4871161;29;20061;-75
2021/01/27 12:57:00;;;;;;;5.50;1.90;;;;;;;;;;4871528;29;20049;-73
2021/01/27 12:59:26;;;;;;;2.97;1.83;;;;;;;;;;4869315;29;20131;-74
2021/01/27 13:01:52;;;;;;;3.20;1.50;;;;;;;;;;4871746;29;20786;-77
2021/01/27 13:04:24;;;;;;;7.18;1.73;;;;;;;;;;4874671;29;20396;-75
2021/01/27 13:06:50;;;;;;;3.03;1.60;;;;;;;;;;4871490;29;20045;-74
2021/01/27 13:09:16;;;;;;;5.05;1.63;;;;;;;;;;4872316;29;20300;-74
2021/01/27 13:11:43;;;;;;;3.35;1.55;;;;;;;;;;4873804;29;20088;-72
2021/01/27 13:14:12;;;;;;;3.55;1.88;;;;;;;;;;4864025;29;20045;-71
2021/01/27 13:16:41;;;;;;;5.75;2.22;;;;;;;;;;4867476;29;20153;-73
2021/01/27 13:19:07;;;;;;;5.38;1.60;;;;;;;;;;4863926;29;20077;-74
2021/01/27 13:21:36;;;;;;;3.05;1.45;;;;;;;;;;4868790;29;20053;-73
2021/01/27 13:24:04;;;;;;;5.15;1.45;;;;;;;;;;4854630;29;20056;-71
2021/01/27 13:26:40;;;;;;;2.78;1.17;;;;;;;;;;4863790;29;20143;-74
2021/01/27 13:29:06;;;;;;;2.47;1.40;;;;;;;;;;4865445;29;20084;-72
2021/01/27 13:31:34;;;;;;;1.88;1.17;;;;;;;;;;4870991;29;20198;-74
2021/01/27 13:34:02;;;;;;;1.67;1.15;;;;;;;;;;4872153;29;20044;-74
2021/01/27 13:36:28;;;;;;;2.45;1.10;;;;;;;;;;4866330;29;20461;-74
2021/01/27 13:38:58;;;;;;;2.53;1.25;;;;;;;;;;4871392;29;20061;-74
2021/01/27 13:41:24;;;;;;;5.00;1.38;;;;;;;;;;4866801;29;20053;-73
2021/01/27 13:43:50;;;;;;;2.35;1.60;;;;;;;;;;4867749;29;20096;-74
2021/01/27 13:46:17;;;;;;;2.10;1.00;;;;;;;;;;4868957;29;20469;-74
2021/01/27 13:48:48;;;;;;;3.85;1.70;;;;;;;;;;4868320;29;20053;-74
2021/01/27 13:51:16;;;;;;;2.42;1.27;;;;;;;;;;4867457;29;20407;-74
2021/01/27 13:53:42;;;;;;;2.13;1.15;;;;;;;;;;4871671;29;20582;-74
2021/01/27 13:56:12;;;;;;;3.33;1.00;;;;;;;;;;4872565;29;20057;-73
2021/01/27 13:58:39;;;;;;;3.17;1.30;;;;;;;;;;4870179;29;20140;-72
2021/01/27 14:01:05;;;;;;;2.80;0.93;;;;;;;;;;4870608;29;20045;-73
2021/01/27 14:03:33;;;;;;;1.75;1.13;;;;;;;;;;4869533;29;20048;-74
2021/01/27 14:05:59;;;;;;;2.30;0.70;;;;;;;;;;4866333;29;20086;-73
2021/01/27 14:08:26;;;;;;;1.77;1.00;;;;;;;;;;4860565;29;20543;-73
2021/01/27 14:10:52;;;;;;;3.13;1.15;;;;;;;;;;4867101;29;20053;-73
2021/01/27 14:13:21;;;;;;;1.55;0.68;;;;;;;;;;4861661;29;20049;-73
2021/01/27 14:15:48;;;;;;;1.13;0.80;;;;;;;;;;4857540;29;20059;-74
2021/01/27 14:18:14;;;;;;;3.08;0.90;;;;;;;;;;4863682;29;20061;-72
2021/01/27 14:20:41;;;;;;;4.00;0.95;;;;;;;;;;4865751;29;20050;-72
2021/01/27 14:23:07;;;;;;;2.15;0.90;;;;;;;;;;4861368;29;20080;-73
2021/01/27 14:25:33;;;;;;;1.67;1.08;;;;;;;;;;4867968;29;20055;-73
2021/01/27 14:28:01;;;;;;;1.77;0.90;;;;;;;;;;4864616;29;20054;-73
2021/01/27 14:30:29;;;;;;;0.80;0.68;;;;;;;;;;4864116;29;20055;-73
2021/01/27 14:32:55;;;;;;;1.33;0.77;;;;;;;;;;4867055;29;20092;-72
2021/01/27 14:35:22;;;;;;;1.45;0.80;;;;;;;;;;4871725;29;20053;-72
2021/01/27 14:37:49;;;;;;;0.93;0.70;;;;;;;;;;4868777;29;20045;-73
2021/01/27 14:40:16;;;;;;;1.58;0.82;;;;;;;;;;4871110;29;20135;-71
2021/01/27 14:42:42;;;;;;;0.80;0.60;;;;;;;;;;4867267;29;20124;-72
2021/01/27 14:45:09;;;;;;;0.60;0.50;;;;;;;;;;4861426;29;20064;-71
2021/01/27 14:47:35;;;;;;;3.53;0.95;;;;;;;;;;4865388;29;20045;-71
2021/01/27 14:50:01;;;;;;;2.10;0.90;;;;;;;;;;4862149;29;20053;-70
2021/01/27 14:52:28;;;;;;;1.77;0.85;;;;;;;;;;4868716;29;20112;-70
2021/01/27 14:54:54;;;;;;;1.42;0.82;;;;;;;;;;4868886;29;20056;-71
2021/01/27 14:57:20;;;;;;;1.83;0.88;;;;;;;;;;4870477;29;20077;-69
2021/01/27 14:59:49;;;;;;;1.98;0.50;;;;;;;;;;4873290;29;20128;-70
2021/01/27 15:02:20;;;;;;;0.47;0.47;;;;;;;;;;4868104;29;20045;-71
2021/01/27 15:04:47;;;;;;;0.98;0.55;;;;;;;;;;4860541;29;20499;-71
2021/01/27 15:07:14;;;;;;;2.72;0.90;;;;;;;;;;4867100;29;20052;-70
2021/01/27 15:09:40;;;;;;;1.95;0.80;;;;;;;;;;4867786;29;20065;-70
2021/01/27 15:12:06;;;;;;;1.10;0.80;;;;;;;;;;4863069;29;20499;-69
2021/01/27 15:14:32;;;;;;;2.17;0.77;;;;;;;;;;4863439;29;20053;-69
2021/01/27 15:17:01;;;;;;;2.42;0.88;;;;;;;;;;4867838;29;20060;-74
2021/01/27 15:19:27;;;;;;;0.80;0.57;;;;;;;;;;4867561;29;20049;-74
2021/01/27 15:21:54;;;;;;;1.23;0.68;;;;;;;;;;4865751;29;20053;-75
2021/01/27 15:24:21;;;;;;;0.60;0.60;;;;;;;;;;4861718;29;20140;-73